sensor_id;sensor_type;location;lat;lon;timestamp;P1;durP1;ratioP1;P2;durP2;ratioP2
10162;SDS011;5123;52.556;13.384;2023-11-21T00:00:12;19.47;;;10.90;;
10162;SDS011;5123;52.556;13.384;2023-11-21T00:02:46;16.17;;;10.37;;
10162;SDS011;5123;52.556;13.384;2023-11-21T00:05:19;13.43;;;9.00;;
10162;SDS011;5123;52.556;13.384;2023-11-21T00:07:55;16.73;;;10.83;;
10162;SDS011;5123;52.556;13.384;2023-11-21T00:10:29;16.83;;;10.90;;
10162;SDS011;5123;52.556;13.384;2023-11-21T00:13:02;22.47;;;12.10;;
10162;SDS011;5123;52.556;13.384;2023-11-21T00:15:35;18.67;;;11.97;;
10162;SDS011;5123;52.556;13.384;2023-11-21T00:18:08;21.03;;;12.73;;
10162;SDS011;5123;52.556;13.384;2023-11-21T00:20:41;25.13;;;14.37;;
10162;SDS011;5123;52.556;13.384;2023-11-21T00:23:17;24.70;;;13.77;;
10162;SDS011;5123;52.556;13.384;2023-11-21T00:25:53;25.20;;;13.43;;
10162;SDS011;5123;52.556;13.384;2023-11-21T00:28:26;22.50;;;14.17;;
10162;SDS011;5123;52.556;13.384;2023-11-21T00:30:59;31.17;;;15.90;;
10162;SDS011;5123;52.556;13.384;2023-11-21T00:33:32;31.40;;;15.20;;
10162;SDS011;5123;52.556;13.384;2023-11-21T00:36:05;28.10;;;16.03;;
10162;SDS011;5123;52.556;13.384;2023-11-21T00:38:43;29.80;;;16.40;;
10162;SDS011;5123;52.556;13.384;2023-11-21T00:41:17;27.40;;;16.50;;
10162;SDS011;5123;52.556;13.384;2023-11-21T00:43:50;32.03;;;17.40;;
10162;SDS011;5123;52.556;13.384;2023-11-21T00:46:22;35.23;;;18.27;;
10162;SDS011;5123;52.556;13.384;2023-11-21T00:48:58;33.63;;;18.10;;
10162;SDS011;5123;52.556;13.384;2023-11-21T00:51:31;37.70;;;17.60;;
10162;SDS011;5123;52.556;13.384;2023-11-21T00:54:04;37.70;;;19.73;;
10162;SDS011;5123;52.556;13.384;2023-11-21T00:56:39;41.93;;;20.53;;
10162;SDS011;5123;52.556;13.384;2023-11-21T00:59:15;43.27;;;21.10;;
10162;SDS011;5123;52.556;13.384;2023-11-21T01:01:50;43.57;;;22.27;;
10162;SDS011;5123;52.556;13.384;2023-11-21T01:04:23;41.93;;;21.17;;
10162;SDS011;5123;52.556;13.384;2023-11-21T01:06:55;43.30;;;21.53;;
10162;SDS011;5123;52.556;13.384;2023-11-21T01:09:34;42.87;;;21.77;;
10162;SDS011;5123;52.556;13.384;2023-11-21T01:12:09;44.93;;;20.87;;
10162;SDS011;5123;52.556;13.384;2023-11-21T01:14:42;50.33;;;22.53;;
10162;SDS011;5123;52.556;13.384;2023-11-21T01:17:16;39.90;;;18.47;;
10162;SDS011;5123;52.556;13.384;2023-11-21T01:19:53;36.00;;;20.23;;
10162;SDS011;5123;52.556;13.384;2023-11-21T01:22:26;49.37;;;21.00;;
10162;SDS011;5123;52.556;13.384;2023-11-21T01:24:59;37.77;;;18.77;;
10162;SDS011;5123;52.556;13.384;2023-11-21T01:27:39;39.50;;;18.17;;
10162;SDS011;5123;52.556;13.384;2023-11-21T01:30:12;40.50;;;19.33;;
10162;SDS011;5123;52.556;13.384;2023-11-21T01:32:47;37.73;;;17.50;;
10162;SDS011;5123;52.556;13.384;2023-11-21T01:35:20;36.80;;;18.10;;
10162;SDS011;5123;52.556;13.384;2023-11-21T01:37:53;36.83;;;16.57;;
10162;SDS011;5123;52.556;13.384;2023-11-21T01:40:26;38.30;;;16.80;;
10162;SDS011;5123;52.556;13.384;2023-11-21T01:43:01;32.53;;;15.10;;
10162;SDS011;5123;52.556;13.384;2023-11-21T01:45:35;39.70;;;17.37;;
10162;SDS011;5123;52.556;13.384;2023-11-21T01:48:07;36.47;;;16.13;;
10162;SDS011;5123;52.556;13.384;2023-11-21T01:50:44;36.93;;;15.70;;
10162;SDS011;5123;52.556;13.384;2023-11-21T01:53:17;27.03;;;13.43;;
10162;SDS011;5123;52.556;13.384;2023-11-21T01:55:50;28.07;;;14.13;;
10162;SDS011;5123;52.556;13.384;2023-11-21T01:58:27;27.13;;;13.63;;
10162;SDS011;5123;52.556;13.384;2023-11-21T02:01:04;31.63;;;14.27;;
10162;SDS011;5123;52.556;13.384;2023-11-21T02:03:40;28.53;;;15.10;;
10162;SDS011;5123;52.556;13.384;2023-11-21T02:06:15;30.40;;;15.03;;
10162;SDS011;5123;52.556;13.384;2023-11-21T02:08:47;25.40;;;12.97;;
10162;SDS011;5123;52.556;13.384;2023-11-21T02:11:21;23.50;;;11.80;;
10162;SDS011;5123;52.556;13.384;2023-11-21T02:13:56;24.13;;;12.00;;
10162;SDS011;5123;52.556;13.384;2023-11-21T02:16:30;18.67;;;10.13;;
10162;SDS011;5123;52.556;13.384;2023-11-21T02:19:04;23.27;;;11.87;;
10162;SDS011;5123;52.556;13.384;2023-11-21T02:21:41;16.77;;;10.00;;
10162;SDS011;5123;52.556;13.384;2023-11-21T02:24:17;15.27;;;9.70;;
10162;SDS011;5123;52.556;13.384;2023-11-21T02:26:52;13.47;;;8.87;;
10162;SDS011;5123;52.556;13.384;2023-11-21T02:29:25;16.73;;;9.30;;
10162;SDS011;5123;52.556;13.384;2023-11-21T02:31:59;14.47;;;8.67;;
10162;SDS011;5123;52.556;13.384;2023-11-21T02:34:32;18.77;;;9.43;;
10162;SDS011;5123;52.556;13.384;2023-11-21T02:37:05;16.73;;;9.90;;
10162;SDS011;5123;52.556;13.384;2023-11-21T02:39:39;12.33;;;8.43;;
10162;SDS011;5123;52.556;13.384;2023-11-21T02:42:12;13.27;;;8.87;;
10162;SDS011;5123;52.556;13.384;2023-11-21T02:44:46;13.73;;;9.67;;
10162;SDS011;5123;52.556;13.384;2023-11-21T02:47:18;11.70;;;8.50;;
10162;SDS011;5123;52.556;13.384;2023-11-21T02:49:51;12.03;;;9.10;;
10162;SDS011;5123;52.556;13.384;2023-11-21T02:52:27;15.10;;;9.30;;
10162;SDS011;5123;52.556;13.384;2023-11-21T02:55:02;12.10;;;8.93;;
10162;SDS011;5123;52.556;13.384;2023-11-21T02:57:34;12.13;;;8.87;;
10162;SDS011;5123;52.556;13.384;2023-11-21T03:00:08;11.47;;;8.83;;
10162;SDS011;5123;52.556;13.384;2023-11-21T03:02:47;12.00;;;9.00;;
10162;SDS011;5123;52.556;13.384;2023-11-21T03:05:20;10.20;;;8.60;;
10162;SDS011;5123;52.556;13.384;2023-11-21T03:07:52;13.47;;;10.03;;
10162;SDS011;5123;52.556;13.384;2023-11-21T03:10:27;13.40;;;9.53;;
10162;SDS011;5123;52.556;13.384;2023-11-21T03:12:59;12.77;;;8.50;;
10162;SDS011;5123;52.556;13.384;2023-11-21T03:15:32;15.60;;;11.17;;
10162;SDS011;5123;52.556;13.384;2023-11-21T03:18:08;12.27;;;9.73;;
10162;SDS011;5123;52.556;13.384;2023-11-21T03:20:41;12.40;;;9.80;;
10162;SDS011;5123;52.556;13.384;2023-11-21T03:23:14;12.80;;;9.60;;
10162;SDS011;5123;52.556;13.384;2023-11-21T03:25:48;11.77;;;9.50;;
10162;SDS011;5123;52.556;13.384;2023-11-21T03:28:22;11.43;;;8.43;;
10162;SDS011;5123;52.556;13.384;2023-11-21T03:31:00;11.00;;;8.90;;
10162;SDS011;5123;52.556;13.384;2023-11-21T03:33:33;11.60;;;8.70;;
10162;SDS011;5123;52.556;13.384;2023-11-21T03:36:06;8.03;;;6.20;;
10162;SDS011;5123;52.556;13.384;2023-11-21T03:38:42;10.43;;;8.93;;
10162;SDS011;5123;52.556;13.384;2023-11-21T03:41:16;12.23;;;9.33;;
10162;SDS011;5123;52.556;13.384;2023-11-21T03:43:50;10.97;;;8.50;;
10162;SDS011;5123;52.556;13.384;2023-11-21T03:46:22;10.10;;;8.43;;
10162;SDS011;5123;52.556;13.384;2023-11-21T03:48:55;11.33;;;9.00;;
10162;SDS011;5123;52.556;13.384;2023-11-21T03:51:28;10.90;;;8.90;;
10162;SDS011;5123;52.556;13.384;2023-11-21T03:54:02;11.90;;;9.63;;
10162;SDS011;5123;52.556;13.384;2023-11-21T03:56:37;10.53;;;8.63;;
10162;SDS011;5123;52.556;13.384;2023-11-21T03:59:12;14.20;;;9.50;;
10162;SDS011;5123;52.556;13.384;2023-11-21T04:01:45;12.87;;;9.60;;
10162;SDS011;5123;52.556;13.384;2023-11-21T04:04:19;14.53;;;9.60;;
10162;SDS011;5123;52.556;13.384;2023-11-21T04:06:52;12.13;;;9.33;;
10162;SDS011;5123;52.556;13.384;2023-11-21T04:09:25;11.53;;;8.90;;
10162;SDS011;5123;52.556;13.384;2023-11-21T04:11:59;11.83;;;9.60;;
10162;SDS011;5123;52.556;13.384;2023-11-21T04:14:32;11.33;;;8.70;;
10162;SDS011;5123;52.556;13.384;2023-11-21T04:17:05;11.73;;;9.37;;
10162;SDS011;5123;52.556;13.384;2023-11-21T04:19:38;13.07;;;9.87;;
10162;SDS011;5123;52.556;13.384;2023-11-21T04:22:12;10.70;;;8.80;;
10162;SDS011;5123;52.556;13.384;2023-11-21T04:24:45;11.90;;;8.60;;
10162;SDS011;5123;52.556;13.384;2023-11-21T04:27:20;12.03;;;8.50;;
10162;SDS011;5123;52.556;13.384;2023-11-21T04:29:53;11.27;;;9.03;;
10162;SDS011;5123;52.556;13.384;2023-11-21T04:32:26;12.77;;;9.80;;
10162;SDS011;5123;52.556;13.384;2023-11-21T04:34:59;14.20;;;9.37;;
10162;SDS011;5123;52.556;13.384;2023-11-21T04:37:32;12.77;;;9.77;;
10162;SDS011;5123;52.556;13.384;2023-11-21T04:40:05;11.40;;;8.57;;
10162;SDS011;5123;52.556;13.384;2023-11-21T04:42:40;11.33;;;9.07;;
10162;SDS011;5123;52.556;13.384;2023-11-21T04:45:13;12.77;;;9.13;;
10162;SDS011;5123;52.556;13.384;2023-11-21T04:47:47;11.67;;;8.73;;
10162;SDS011;5123;52.556;13.384;2023-11-21T04:50:20;14.53;;;9.27;;
10162;SDS011;5123;52.556;13.384;2023-11-21T04:52:55;13.77;;;9.00;;
10162;SDS011;5123;52.556;13.384;2023-11-21T04:55:29;12.13;;;8.53;;
10162;SDS011;5123;52.556;13.384;2023-11-21T04:58:04;11.13;;;8.53;;
10162;SDS011;5123;52.556;13.384;2023-11-21T05:00:38;12.23;;;8.63;;
10162;SDS011;5123;52.556;13.384;2023-11-21T05:03:11;10.93;;;8.10;;
10162;SDS011;5123;52.556;13.384;2023-11-21T05:05:44;9.40;;;7.20;;
10162;SDS011;5123;52.556;13.384;2023-11-21T05:08:17;11.50;;;8.27;;
10162;SDS011;5123;52.556;13.384;2023-11-21T05:10:53;10.20;;;8.10;;
10162;SDS011;5123;52.556;13.384;2023-11-21T05:13:28;10.83;;;8.33;;
10162;SDS011;5123;52.556;13.384;2023-11-21T05:16:01;9.33;;;6.57;;
10162;SDS011;5123;52.556;13.384;2023-11-21T05:18:36;11.10;;;8.03;;
10162;SDS011;5123;52.556;13.384;2023-11-21T05:21:08;12.23;;;8.47;;
10162;SDS011;5123;52.556;13.384;2023-11-21T05:23:41;10.03;;;8.07;;
10162;SDS011;5123;52.556;13.384;2023-11-21T05:26:21;12.60;;;9.00;;
10162;SDS011;5123;52.556;13.384;2023-11-21T05:28:55;12.10;;;8.40;;
10162;SDS011;5123;52.556;13.384;2023-11-21T05:31:29;9.10;;;7.17;;
10162;SDS011;5123;52.556;13.384;2023-11-21T05:34:02;11.27;;;7.87;;
10162;SDS011;5123;52.556;13.384;2023-11-21T05:36:36;6.60;;;4.97;;
10162;SDS011;5123;52.556;13.384;2023-11-21T05:39:09;9.97;;;7.40;;
10162;SDS011;5123;52.556;13.384;2023-11-21T05:41:42;10.67;;;7.60;;
10162;SDS011;5123;52.556;13.384;2023-11-21T05:44:19;8.30;;;5.07;;
10162;SDS011;5123;52.556;13.384;2023-11-21T05:46:52;12.70;;;8.03;;
10162;SDS011;5123;52.556;13.384;2023-11-21T05:49:27;8.80;;;6.10;;
10162;SDS011;5123;52.556;13.384;2023-11-21T05:52:01;12.77;;;8.20;;
10162;SDS011;5123;52.556;13.384;2023-11-21T05:54:34;10.70;;;6.83;;
10162;SDS011;5123;52.556;13.384;2023-11-21T05:57:11;7.67;;;5.90;;
10162;SDS011;5123;52.556;13.384;2023-11-21T05:59:45;9.77;;;7.37;;
10162;SDS011;5123;52.556;13.384;2023-11-21T06:02:18;9.13;;;7.07;;
10162;SDS011;5123;52.556;13.384;2023-11-21T06:04:51;9.00;;;6.70;;
10162;SDS011;5123;52.556;13.384;2023-11-21T06:07:23;7.53;;;6.03;;
10162;SDS011;5123;52.556;13.384;2023-11-21T06:09:56;8.10;;;6.53;;
10162;SDS011;5123;52.556;13.384;2023-11-21T06:12:29;8.60;;;5.70;;
10162;SDS011;5123;52.556;13.384;2023-11-21T06:15:04;6.37;;;5.33;;
10162;SDS011;5123;52.556;13.384;2023-11-21T06:17:40;8.00;;;5.97;;
10162;SDS011;5123;52.556;13.384;2023-11-21T06:20:13;8.20;;;5.90;;
10162;SDS011;5123;52.556;13.384;2023-11-21T06:22:47;9.03;;;5.90;;
10162;SDS011;5123;52.556;13.384;2023-11-21T06:25:20;6.93;;;4.97;;
10162;SDS011;5123;52.556;13.384;2023-11-21T06:27:54;7.73;;;5.60;;
10162;SDS011;5123;52.556;13.384;2023-11-21T06:30:29;5.30;;;4.20;;
10162;SDS011;5123;52.556;13.384;2023-11-21T06:33:02;6.30;;;5.33;;
10162;SDS011;5123;52.556;13.384;2023-11-21T06:35:36;5.30;;;4.73;;
10162;SDS011;5123;52.556;13.384;2023-11-21T06:38:09;9.33;;;5.23;;
10162;SDS011;5123;52.556;13.384;2023-11-21T06:40:44;5.23;;;4.47;;
10162;SDS011;5123;52.556;13.384;2023-11-21T06:43:17;5.60;;;4.60;;
10162;SDS011;5123;52.556;13.384;2023-11-21T06:45:51;6.40;;;4.57;;
10162;SDS011;5123;52.556;13.384;2023-11-21T06:48:25;5.63;;;4.50;;
10162;SDS011;5123;52.556;13.384;2023-11-21T06:50:58;5.50;;;4.37;;
10162;SDS011;5123;52.556;13.384;2023-11-21T06:53:31;5.07;;;4.20;;
10162;SDS011;5123;52.556;13.384;2023-11-21T06:56:14;5.77;;;4.23;;
10162;SDS011;5123;52.556;13.384;2023-11-21T06:58:48;6.83;;;4.43;;
10162;SDS011;5123;52.556;13.384;2023-11-21T07:01:27;5.00;;;4.50;;
10162;SDS011;5123;52.556;13.384;2023-11-21T07:04:00;6.13;;;5.07;;
10162;SDS011;5123;52.556;13.384;2023-11-21T07:06:33;6.40;;;5.20;;
10162;SDS011;5123;52.556;13.384;2023-11-21T07:09:06;6.60;;;4.60;;
10162;SDS011;5123;52.556;13.384;2023-11-21T07:11:41;5.87;;;4.90;;
10162;SDS011;5123;52.556;13.384;2023-11-21T07:14:14;5.73;;;4.80;;
10162;SDS011;5123;52.556;13.384;2023-11-21T07:16:49;6.10;;;4.97;;
10162;SDS011;5123;52.556;13.384;2023-11-21T07:19:24;7.37;;;5.20;;
10162;SDS011;5123;52.556;13.384;2023-11-21T07:21:57;8.03;;;5.47;;
10162;SDS011;5123;52.556;13.384;2023-11-21T07:24:30;7.23;;;5.57;;
10162;SDS011;5123;52.556;13.384;2023-11-21T07:27:05;9.67;;;4.60;;
10162;SDS011;5123;52.556;13.384;2023-11-21T07:29:39;8.37;;;5.83;;
10162;SDS011;5123;52.556;13.384;2023-11-21T07:32:14;7.40;;;5.30;;
10162;SDS011;5123;52.556;13.384;2023-11-21T07:34:48;7.60;;;6.03;;
10162;SDS011;5123;52.556;13.384;2023-11-21T07:37:25;7.00;;;5.87;;
10162;SDS011;5123;52.556;13.384;2023-11-21T07:40:00;6.40;;;5.37;;
10162;SDS011;5123;52.556;13.384;2023-11-21T07:42:34;8.47;;;6.83;;
10162;SDS011;5123;52.556;13.384;2023-11-21T07:45:07;8.03;;;5.40;;
10162;SDS011;5123;52.556;13.384;2023-11-21T07:47:41;6.30;;;5.10;;
10162;SDS011;5123;52.556;13.384;2023-11-21T07:50:14;6.33;;;5.20;;
10162;SDS011;5123;52.556;13.384;2023-11-21T07:52:47;6.90;;;5.70;;
10162;SDS011;5123;52.556;13.384;2023-11-21T07:55:23;6.10;;;4.47;;
10162;SDS011;5123;52.556;13.384;2023-11-21T07:57:56;5.50;;;5.00;;
10162;SDS011;5123;52.556;13.384;2023-11-21T08:00:29;8.43;;;4.80;;
10162;SDS011;5123;52.556;13.384;2023-11-21T08:03:04;6.20;;;4.67;;
10162;SDS011;5123;52.556;13.384;2023-11-21T08:05:37;6.00;;;4.70;;
10162;SDS011;5123;52.556;13.384;2023-11-21T08:08:10;6.77;;;5.20;;
10162;SDS011;5123;52.556;13.384;2023-11-21T08:10:43;8.10;;;5.73;;
10162;SDS011;5123;52.556;13.384;2023-11-21T08:13:17;6.80;;;5.40;;
10162;SDS011;5123;52.556;13.384;2023-11-21T08:15:50;6.73;;;5.07;;
10162;SDS011;5123;52.556;13.384;2023-11-21T08:18:25;5.13;;;4.63;;
10162;SDS011;5123;52.556;13.384;2023-11-21T08:20:58;6.47;;;5.70;;
10162;SDS011;5123;52.556;13.384;2023-11-21T08:23:32;5.97;;;4.70;;
10162;SDS011;5123;52.556;13.384;2023-11-21T08:26:06;5.73;;;4.67;;
10162;SDS011;5123;52.556;13.384;2023-11-21T08:28:40;7.23;;;5.67;;
10162;SDS011;5123;52.556;13.384;2023-11-21T08:31:14;7.00;;;5.03;;
10162;SDS011;5123;52.556;13.384;2023-11-21T08:33:48;6.77;;;4.57;;
10162;SDS011;5123;52.556;13.384;2023-11-21T08:36:22;7.20;;;5.07;;
10162;SDS011;5123;52.556;13.384;2023-11-21T08:38:55;6.10;;;5.20;;
10162;SDS011;5123;52.556;13.384;2023-11-21T08:41:28;5.60;;;4.83;;
10162;SDS011;5123;52.556;13.384;2023-11-21T08:44:05;6.93;;;4.60;;
10162;SDS011;5123;52.556;13.384;2023-11-21T08:46:43;9.00;;;6.17;;
10162;SDS011;5123;52.556;13.384;2023-11-21T08:49:17;9.33;;;5.30;;
10162;SDS011;5123;52.556;13.384;2023-11-21T08:51:50;7.20;;;5.27;;
10162;SDS011;5123;52.556;13.384;2023-11-21T08:54:23;8.70;;;5.60;;
10162;SDS011;5123;52.556;13.384;2023-11-21T08:56:57;7.40;;;4.90;;
10162;SDS011;5123;52.556;13.384;2023-11-21T08:59:30;7.10;;;5.00;;
10162;SDS011;5123;52.556;13.384;2023-11-21T09:02:04;6.23;;;4.90;;
10162;SDS011;5123;52.556;13.384;2023-11-21T09:04:41;11.27;;;6.50;;
10162;SDS011;5123;52.556;13.384;2023-11-21T09:07:18;7.30;;;5.37;;
10162;SDS011;5123;52.556;13.384;2023-11-21T09:09:51;8.73;;;5.30;;
10162;SDS011;5123;52.556;13.384;2023-11-21T09:12:24;7.63;;;5.03;;
10162;SDS011;5123;52.556;13.384;2023-11-21T09:14:57;11.20;;;6.07;;
10162;SDS011;5123;52.556;13.384;2023-11-21T09:17:30;9.13;;;5.03;;
10162;SDS011;5123;52.556;13.384;2023-11-21T09:20:07;7.67;;;5.23;;
10162;SDS011;5123;52.556;13.384;2023-11-21T09:22:42;7.73;;;5.00;;
10162;SDS011;5123;52.556;13.384;2023-11-21T09:25:16;8.30;;;5.50;;
10162;SDS011;5123;52.556;13.384;2023-11-21T09:27:51;8.50;;;6.07;;
10162;SDS011;5123;52.556;13.384;2023-11-21T09:30:24;10.93;;;6.23;;
10162;SDS011;5123;52.556;13.384;2023-11-21T09:32:58;13.53;;;6.40;;
10162;SDS011;5123;52.556;13.384;2023-11-21T09:35:36;10.17;;;6.70;;
10162;SDS011;5123;52.556;13.384;2023-11-21T09:38:09;14.93;;;6.50;;
10162;SDS011;5123;52.556;13.384;2023-11-21T09:40:43;11.63;;;7.40;;
10162;SDS011;5123;52.556;13.384;2023-11-21T09:43:16;12.33;;;6.83;;
10162;SDS011;5123;52.556;13.384;2023-11-21T09:45:51;14.07;;;7.07;;
10162;SDS011;5123;52.556;13.384;2023-11-21T09:48:27;12.83;;;6.50;;
10162;SDS011;5123;52.556;13.384;2023-11-21T09:51:01;13.47;;;7.33;;
10162;SDS011;5123;52.556;13.384;2023-11-21T09:53:35;17.70;;;7.80;;
10162;SDS011;5123;52.556;13.384;2023-11-21T09:56:09;14.30;;;7.50;;
10162;SDS011;5123;52.556;13.384;2023-11-21T09:58:42;12.17;;;6.90;;
10162;SDS011;5123;52.556;13.384;2023-11-21T10:01:14;10.77;;;7.00;;
10162;SDS011;5123;52.556;13.384;2023-11-21T10:03:49;10.70;;;6.40;;
10162;SDS011;5123;52.556;13.384;2023-11-21T10:06:23;11.87;;;6.57;;
10162;SDS011;5123;52.556;13.384;2023-11-21T10:08:58;13.50;;;7.03;;
10162;SDS011;5123;52.556;13.384;2023-11-21T10:11:34;10.10;;;5.80;;
10162;SDS011;5123;52.556;13.384;2023-11-21T10:14:08;10.10;;;6.27;;
10162;SDS011;5123;52.556;13.384;2023-11-21T10:16:41;8.70;;;6.10;;
10162;SDS011;5123;52.556;13.384;2023-11-21T10:19:16;10.20;;;5.97;;
10162;SDS011;5123;52.556;13.384;2023-11-21T10:21:51;8.23;;;5.57;;
10162;SDS011;5123;52.556;13.384;2023-11-21T10:24:27;9.37;;;5.70;;
10162;SDS011;5123;52.556;13.384;2023-11-21T10:27:11;6.40;;;4.93;;
10162;SDS011;5123;52.556;13.384;2023-11-21T10:29:44;5.40;;;4.20;;
10162;SDS011;5123;52.556;13.384;2023-11-21T10:32:18;7.70;;;4.83;;
10162;SDS011;5123;52.556;13.384;2023-11-21T10:34:58;7.53;;;4.57;;
10162;SDS011;5123;52.556;13.384;2023-11-21T10:37:38;5.60;;;4.30;;
10162;SDS011;5123;52.556;13.384;2023-11-21T10:40:13;6.53;;;4.23;;
10162;SDS011;5123;52.556;13.384;2023-11-21T10:42:47;6.57;;;4.20;;
10162;SDS011;5123;52.556;13.384;2023-11-21T10:45:22;7.33;;;4.07;;
10162;SDS011;5123;52.556;13.384;2023-11-21T10:47:57;5.53;;;4.03;;
10162;SDS011;5123;52.556;13.384;2023-11-21T10:50:32;5.93;;;4.27;;
10162;SDS011;5123;52.556;13.384;2023-11-21T10:53:11;5.10;;;4.33;;
10162;SDS011;5123;52.556;13.384;2023-11-21T10:55:48;4.80;;;4.20;;
10162;SDS011;5123;52.556;13.384;2023-11-21T10:58:22;6.47;;;4.00;;
10162;SDS011;5123;52.556;13.384;2023-11-21T11:00:55;7.40;;;4.30;;
10162;SDS011;5123;52.556;13.384;2023-11-21T11:03:28;4.93;;;4.40;;
10162;SDS011;5123;52.556;13.384;2023-11-21T11:06:02;4.67;;;3.97;;
10162;SDS011;5123;52.556;13.384;2023-11-21T11:08:37;5.43;;;3.83;;
10162;SDS011;5123;52.556;13.384;2023-11-21T11:11:10;4.70;;;3.50;;
10162;SDS011;5123;52.556;13.384;2023-11-21T11:13:45;4.30;;;3.73;;
10162;SDS011;5123;52.556;13.384;2023-11-21T11:16:18;5.73;;;3.53;;
10162;SDS011;5123;52.556;13.384;2023-11-21T11:18:51;5.93;;;4.93;;
10162;SDS011;5123;52.556;13.384;2023-11-21T11:21:25;5.70;;;4.30;;
10162;SDS011;5123;52.556;13.384;2023-11-21T11:24:07;3.60;;;3.30;;
10162;SDS011;5123;52.556;13.384;2023-11-21T11:26:47;3.50;;;3.20;;
10162;SDS011;5123;52.556;13.384;2023-11-21T11:29:28;5.57;;;3.23;;
10162;SDS011;5123;52.556;13.384;2023-11-21T11:32:11;4.03;;;3.63;;
10162;SDS011;5123;52.556;13.384;2023-11-21T11:34:46;3.93;;;3.53;;
10162;SDS011;5123;52.556;13.384;2023-11-21T11:37:21;5.37;;;4.27;;
10162;SDS011;5123;52.556;13.384;2023-11-21T11:39:56;3.40;;;3.10;;
10162;SDS011;5123;52.556;13.384;2023-11-21T11:42:29;5.23;;;2.90;;
10162;SDS011;5123;52.556;13.384;2023-11-21T11:45:04;3.73;;;3.27;;
10162;SDS011;5123;52.556;13.384;2023-11-21T11:47:56;6.00;;;3.70;;
10162;SDS011;5123;52.556;13.384;2023-11-21T11:50:29;3.87;;;3.43;;
10162;SDS011;5123;52.556;13.384;2023-11-21T11:53:11;4.90;;;3.63;;
10162;SDS011;5123;52.556;13.384;2023-11-21T11:55:48;4.73;;;4.00;;
10162;SDS011;5123;52.556;13.384;2023-11-21T11:58:37;4.43;;;3.20;;
10162;SDS011;5123;52.556;13.384;2023-11-21T12:01:10;4.43;;;3.50;;
10162;SDS011;5123;52.556;13.384;2023-11-21T12:03:44;5.33;;;4.80;;
10162;SDS011;5123;52.556;13.384;2023-11-21T12:06:19;4.40;;;3.40;;
10162;SDS011;5123;52.556;13.384;2023-11-21T12:09:03;3.73;;;3.33;;
10162;SDS011;5123;52.556;13.384;2023-11-21T12:11:38;3.00;;;2.70;;
10162;SDS011;5123;52.556;13.384;2023-11-21T12:14:11;4.57;;;3.60;;
10162;SDS011;5123;52.556;13.384;2023-11-21T12:16:46;4.23;;;3.23;;
10162;SDS011;5123;52.556;13.384;2023-11-21T12:19:19;3.67;;;3.30;;
10162;SDS011;5123;52.556;13.384;2023-11-21T12:21:53;3.73;;;3.37;;
10162;SDS011;5123;52.556;13.384;2023-11-21T12:24:27;8.63;;;6.93;;
10162;SDS011;5123;52.556;13.384;2023-11-21T12:27:02;7.20;;;5.63;;
10162;SDS011;5123;52.556;13.384;2023-11-21T12:29:35;5.23;;;4.73;;
10162;SDS011;5123;52.556;13.384;2023-11-21T12:32:09;6.00;;;3.87;;
10162;SDS011;5123;52.556;13.384;2023-11-21T12:34:42;5.13;;;4.00;;
10162;SDS011;5123;52.556;13.384;2023-11-21T12:37:15;5.60;;;3.83;;
10162;SDS011;5123;52.556;13.384;2023-11-21T12:39:51;5.20;;;4.00;;
10162;SDS011;5123;52.556;13.384;2023-11-21T12:42:27;5.40;;;3.63;;
10162;SDS011;5123;52.556;13.384;2023-11-21T12:45:07;3.83;;;3.50;;
10162;SDS011;5123;52.556;13.384;2023-11-21T12:47:40;4.20;;;3.20;;
10162;SDS011;5123;52.556;13.384;2023-11-21T12:50:14;4.17;;;3.53;;
10162;SDS011;5123;52.556;13.384;2023-11-21T12:52:47;4.63;;;3.60;;
10162;SDS011;5123;52.556;13.384;2023-11-21T12:55:20;5.00;;;4.13;;
10162;SDS011;5123;52.556;13.384;2023-11-21T12:57:55;4.90;;;4.10;;
10162;SDS011;5123;52.556;13.384;2023-11-21T13:00:31;4.90;;;4.40;;
10162;SDS011;5123;52.556;13.384;2023-11-21T13:03:05;5.33;;;4.20;;
10162;SDS011;5123;52.556;13.384;2023-11-21T13:05:38;5.30;;;4.67;;
10162;SDS011;5123;52.556;13.384;2023-11-21T13:08:14;11.37;;;8.10;;
10162;SDS011;5123;52.556;13.384;2023-11-21T13:10:52;10.90;;;5.23;;
10162;SDS011;5123;52.556;13.384;2023-11-21T13:13:29;7.67;;;4.37;;
10162;SDS011;5123;52.556;13.384;2023-11-21T13:16:03;6.83;;;4.73;;
10162;SDS011;5123;52.556;13.384;2023-11-21T13:18:37;5.60;;;4.57;;
10162;SDS011;5123;52.556;13.384;2023-11-21T13:21:11;6.27;;;5.00;;
10162;SDS011;5123;52.556;13.384;2023-11-21T13:23:45;5.53;;;4.50;;
10162;SDS011;5123;52.556;13.384;2023-11-21T13:26:20;5.67;;;4.63;;
10162;SDS011;5123;52.556;13.384;2023-11-21T13:28:56;5.40;;;4.67;;
10162;SDS011;5123;52.556;13.384;2023-11-21T13:31:33;7.67;;;4.97;;
10162;SDS011;5123;52.556;13.384;2023-11-21T13:34:08;9.57;;;5.33;;
10162;SDS011;5123;52.556;13.384;2023-11-21T13:36:51;6.33;;;4.90;;
10162;SDS011;5123;52.556;13.384;2023-11-21T13:39:29;13.20;;;6.53;;
10162;SDS011;5123;52.556;13.384;2023-11-21T13:42:04;14.10;;;5.93;;
10162;SDS011;5123;52.556;13.384;2023-11-21T13:44:41;9.00;;;5.80;;
10162;SDS011;5123;52.556;13.384;2023-11-21T13:47:18;6.93;;;5.07;;
10162;SDS011;5123;52.556;13.384;2023-11-21T13:49:50;8.27;;;5.37;;
10162;SDS011;5123;52.556;13.384;2023-11-21T13:52:26;9.77;;;7.53;;
10162;SDS011;5123;52.556;13.384;2023-11-21T13:55:01;15.90;;;9.70;;
10162;SDS011;5123;52.556;13.384;2023-11-21T13:57:38;20.37;;;10.53;;
10162;SDS011;5123;52.556;13.384;2023-11-21T14:00:12;16.43;;;10.43;;
10162;SDS011;5123;52.556;13.384;2023-11-21T14:03:06;13.33;;;8.20;;
10162;SDS011;5123;52.556;13.384;2023-11-21T14:05:47;13.20;;;8.83;;
10162;SDS011;5123;52.556;13.384;2023-11-21T14:08:22;14.73;;;9.13;;
10162;SDS011;5123;52.556;13.384;2023-11-21T14:10:59;14.53;;;9.70;;
10162;SDS011;5123;52.556;13.384;2023-11-21T14:13:34;12.87;;;9.77;;
10162;SDS011;5123;52.556;13.384;2023-11-21T14:16:09;15.13;;;9.60;;
10162;SDS011;5123;52.556;13.384;2023-11-21T14:18:43;14.43;;;10.03;;
10162;SDS011;5123;52.556;13.384;2023-11-21T14:21:25;16.17;;;11.23;;
10162;SDS011;5123;52.556;13.384;2023-11-21T14:23:58;13.97;;;10.33;;
10162;SDS011;5123;52.556;13.384;2023-11-21T14:26:32;14.93;;;10.47;;
10162;SDS011;5123;52.556;13.384;2023-11-21T14:29:05;14.97;;;11.30;;
10162;SDS011;5123;52.556;13.384;2023-11-21T14:31:39;16.30;;;11.90;;
10162;SDS011;5123;52.556;13.384;2023-11-21T14:34:12;50.67;;;28.57;;
10162;SDS011;5123;52.556;13.384;2023-11-21T14:36:48;20.77;;;11.53;;
10162;SDS011;5123;52.556;13.384;2023-11-21T14:39:21;15.63;;;11.03;;
10162;SDS011;5123;52.556;13.384;2023-11-21T14:41:56;16.30;;;11.93;;
10162;SDS011;5123;52.556;13.384;2023-11-21T14:44:30;16.33;;;12.30;;
10162;SDS011;5123;52.556;13.384;2023-11-21T14:47:11;19.03;;;13.10;;
10162;SDS011;5123;52.556;13.384;2023-11-21T14:49:48;17.93;;;11.60;;
10162;SDS011;5123;52.556;13.384;2023-11-21T14:52:28;18.60;;;12.30;;
10162;SDS011;5123;52.556;13.384;2023-11-21T14:55:06;17.57;;;12.93;;
10162;SDS011;5123;52.556;13.384;2023-11-21T14:57:53;15.87;;;11.50;;
10162;SDS011;5123;52.556;13.384;2023-11-21T15:00:25;15.87;;;12.33;;
10162;SDS011;5123;52.556;13.384;2023-11-21T15:03:17;16.57;;;12.53;;
10162;SDS011;5123;52.556;13.384;2023-11-21T15:06:11;17.37;;;11.40;;
10162;SDS011;5123;52.556;13.384;2023-11-21T15:09:01;15.33;;;10.90;;
10162;SDS011;5123;52.556;13.384;2023-11-21T15:11:51;16.93;;;12.20;;
10162;SDS011;5123;52.556;13.384;2023-11-21T15:14:31;13.93;;;10.13;;
10162;SDS011;5123;52.556;13.384;2023-11-21T15:17:05;15.50;;;11.97;;
10162;SDS011;5123;52.556;13.384;2023-11-21T15:19:42;15.83;;;12.00;;
10162;SDS011;5123;52.556;13.384;2023-11-21T15:22:16;16.37;;;11.83;;